Time;durP1;ratioP1;P1;durP2;ratioP2;P2;SDS_P1;SDS_P2;PMS_P1;PMS_P2;Temp;Humidity;BMP_temperature;BMP_pressure;BME280_temperature;BME280_humidity;BME280_pressure;Samples;Min_cycle;Max_cycle;Signal;HPM_P1;HPM_P2
2023/03/08 00:01:52;;;;;;;0.65;0.65;;;;;;;;;;4987020;28;20398;-81
2023/03/08 00:04:18;;;;;;;1.52;0.60;;;;;;;;;;4985417;28;20737;-80
2023/03/08 00:06:43;;;;;;;0.45;0.43;;;;;;;;;;4989793;28;20030;-81
2023/03/08 00:09:15;;;;;;;0.32;0.32;;;;;;;;;;4987093;28;20049;-79
2023/03/08 00:11:41;;;;;;;0.45;0.30;;;;;;;;;;4986833;28;20219;-80
2023/03/08 00:14:07;;;;;;;0.68;0.63;;;;;;;;;;4984539;28;20445;-80
2023/03/08 00:16:34;;;;;;;3.40;0.60;;;;;;;;;;4985621;28;20026;-80
2023/03/08 00:19:00;;;;;;;0.77;0.50;;;;;;;;;;4985787;28;20030;-80
2023/03/08 00:21:26;;;;;;;0.52;0.40;;;;;;;;;;4985155;28;20022;-80
2023/03/08 00:23:53;;;;;;;0.77;0.65;;;;;;;;;;4983502;28;20108;-80
2023/03/08 00:26:21;;;;;;;1.00;0.50;;;;;;;;;;4986646;28;20043;-80
2023/03/08 00:28:47;;;;;;;0.30;0.30;;;;;;;;;;4985280;28;20018;-80
2023/03/08 00:31:13;;;;;;;0.80;0.40;;;;;;;;;;4986049;28;20075;-81
2023/03/08 00:33:40;;;;;;;0.40;0.40;;;;;;;;;;4983935;28;20041;-81
2023/03/08 00:36:07;;;;;;;0.88;0.50;;;;;;;;;;4986541;28;20044;-80
2023/03/08 00:38:35;;;;;;;1.65;0.47;;;;;;;;;;4987376;28;20478;-80
2023/03/08 00:41:01;;;;;;;0.60;0.60;;;;;;;;;;4984582;28;20015;-80
2023/03/08 00:43:28;;;;;;;0.60;0.40;;;;;;;;;;4986862;28;20045;-80
2023/03/08 00:45:54;;;;;;;1.45;0.70;;;;;;;;;;4983848;28;20108;-80
2023/03/08 00:48:20;;;;;;;3.15;0.70;;;;;;;;;;4987548;28;20120;-80
2023/03/08 00:50:47;;;;;;;3.35;1.77;;;;;;;;;;4984583;28;20037;-79
2023/03/08 00:53:13;;;;;;;0.77;0.60;;;;;;;;;;4984710;28;20026;-80
2023/03/08 00:55:39;;;;;;;0.80;0.63;;;;;;;;;;4982097;28;20109;-80
2023/03/08 00:58:05;;;;;;;0.52;0.47;;;;;;;;;;4983465;28;20482;-80
2023/03/08 01:00:31;;;;;;;0.45;0.45;;;;;;;;;;4984624;28;20031;-80
2023/03/08 01:02:57;;;;;;;0.60;0.50;;;;;;;;;;4967838;28;20018;-80
2023/03/08 01:05:23;;;;;;;0.55;0.50;;;;;;;;;;4986479;28;20469;-80
2023/03/08 01:07:49;;;;;;;0.43;0.40;;;;;;;;;;4984394;28;20045;-82
2023/03/08 01:10:16;;;;;;;0.70;0.60;;;;;;;;;;4984432;28;20052;-81
2023/03/08 01:12:42;;;;;;;0.50;0.50;;;;;;;;;;4986536;28;20026;-80
2023/03/08 01:15:08;;;;;;;0.73;0.60;;;;;;;;;;4983876;28;20034;-80
2023/03/08 01:17:34;;;;;;;0.35;0.35;;;;;;;;;;4984198;28;20034;-80
2023/03/08 01:20:00;;;;;;;0.65;0.52;;;;;;;;;;4982952;28;20026;-80
2023/03/08 01:22:26;;;;;;;0.47;0.47;;;;;;;;;;4982304;28;20102;-80
2023/03/08 01:24:52;;;;;;;1.25;0.50;;;;;;;;;;4984274;28;20516;-81
2023/03/08 01:27:18;;;;;;;0.38;0.38;;;;;;;;;;4982468;28;20540;-80
2023/03/08 01:29:44;;;;;;;0.40;0.40;;;;;;;;;;4985709;28;20030;-80
2023/03/08 01:32:10;;;;;;;0.40;0.40;;;;;;;;;;4984647;28;20130;-80
2023/03/08 01:34:37;;;;;;;0.70;0.50;;;;;;;;;;4982911;28;20018;-81
2023/03/08 01:37:03;;;;;;;0.60;0.60;;;;;;;;;;4980922;28;20404;-80
2023/03/08 01:39:29;;;;;;;0.40;0.35;;;;;;;;;;4985432;28;20261;-80
2023/03/08 01:41:55;;;;;;;0.68;0.30;;;;;;;;;;4983903;28;20030;-80
2023/03/08 01:44:24;;;;;;;1.08;0.60;;;;;;;;;;4986201;28;20105;-80
2023/03/08 01:46:50;;;;;;;1.25;0.60;;;;;;;;;;4985340;28;20042;-80
2023/03/08 01:49:27;;;;;;;1.40;0.70;;;;;;;;;;4983606;28;20234;-82
2023/03/08 01:51:52;;;;;;;1.08;0.43;;;;;;;;;;4983342;28;20033;-81
2023/03/08 01:54:20;;;;;;;0.75;0.47;;;;;;;;;;4983273;28;20034;-80
2023/03/08 01:56:47;;;;;;;3.28;0.40;;;;;;;;;;4984373;28;20082;-80
2023/03/08 01:59:14;;;;;;;0.50;0.40;;;;;;;;;;4981021;28;20035;-80
2023/03/08 02:01:40;;;;;;;0.98;0.60;;;;;;;;;;4982230;28;20034;-80
2023/03/08 02:04:06;;;;;;;0.43;0.30;;;;;;;;;;4985424;28;20015;-80
2023/03/08 02:06:32;;;;;;;0.20;0.20;;;;;;;;;;4984302;28;20061;-80
2023/03/08 02:09:02;;;;;;;0.93;0.60;;;;;;;;;;4948842;28;978306;-80
2023/03/08 02:11:28;;;;;;;0.47;0.47;;;;;;;;;;4981035;28;20034;-80
2023/03/08 02:13:55;;;;;;;0.60;0.50;;;;;;;;;;4985286;28;20109;-80
2023/03/08 02:16:21;;;;;;;0.60;0.60;;;;;;;;;;4983684;28;20101;-80
2023/03/08 02:19:13;;;;;;;1.48;0.60;;;;;;;;;;4982953;28;20026;-81
2023/03/08 02:21:39;;;;;;;0.45;0.45;;;;;;;;;;4980967;28;20042;-80
2023/03/08 02:24:07;;;;;;;1.10;0.50;;;;;;;;;;4983724;28;20121;-81
2023/03/08 02:26:35;;;;;;;0.40;0.40;;;;;;;;;;4983725;28;20117;-80
2023/03/08 02:29:01;;;;;;;1.55;0.40;;;;;;;;;;4982798;28;20073;-80
2023/03/08 02:31:27;;;;;;;1.67;0.73;;;;;;;;;;4983298;28;20088;-80
2023/03/08 02:33:53;;;;;;;0.28;0.28;;;;;;;;;;4985941;28;20046;-80
2023/03/08 02:36:19;;;;;;;0.40;0.40;;;;;;;;;;4983798;28;20109;-80
2023/03/08 02:38:45;;;;;;;1.27;0.70;;;;;;;;;;4984649;28;20097;-80
2023/03/08 02:41:10;;;;;;;0.45;0.45;;;;;;;;;;4984895;28;20033;-80
2023/03/08 02:43:36;;;;;;;0.65;0.30;;;;;;;;;;4984779;28;20041;-79
2023/03/08 02:46:02;;;;;;;0.40;0.40;;;;;;;;;;4985928;28;20053;-79
2023/03/08 02:48:28;;;;;;;0.50;0.50;;;;;;;;;;4982793;28;20049;-79
2023/03/08 02:50:54;;;;;;;0.50;0.20;;;;;;;;;;4985586;28;20026;-79
2023/03/08 02:53:20;;;;;;;0.28;0.20;;;;;;;;;;4986980;28;20126;-79
2023/03/08 02:55:46;;;;;;;0.50;0.50;;;;;;;;;;4986292;28;20405;-82
2023/03/08 02:58:12;;;;;;;0.50;0.50;;;;;;;;;;4983692;28;20027;-81
2023/03/08 03:00:38;;;;;;;2.58;0.30;;;;;;;;;;4985726;28;20065;-81
2023/03/08 03:03:05;;;;;;;1.73;0.40;;;;;;;;;;4982136;28;20027;-81
2023/03/08 03:05:34;;;;;;;0.43;0.43;;;;;;;;;;4985504;28;20295;-81
2023/03/08 03:08:00;;;;;;;0.30;0.30;;;;;;;;;;4984759;28;20027;-81
2023/03/08 03:10:26;;;;;;;0.75;0.52;;;;;;;;;;4983645;28;20042;-82
2023/03/08 03:12:52;;;;;;;0.40;0.40;;;;;;;;;;4986665;28;20066;-80
2023/03/08 03:15:18;;;;;;;0.47;0.47;;;;;;;;;;4989927;28;20030;-79
2023/03/08 03:17:44;;;;;;;0.85;0.50;;;;;;;;;;4988754;28;20034;-81
2023/03/08 03:20:10;;;;;;;0.47;0.47;;;;;;;;;;4988189;28;20081;-80
2023/03/08 03:22:37;;;;;;;1.15;0.70;;;;;;;;;;4987615;28;20032;-80
2023/03/08 03:25:03;;;;;;;0.40;0.40;;;;;;;;;;4989765;28;20077;-80
2023/03/08 03:27:29;;;;;;;0.40;0.40;;;;;;;;;;4988717;28;20030;-80
2023/03/08 03:29:55;;;;;;;0.43;0.43;;;;;;;;;;4986695;28;20071;-81
2023/03/08 03:32:21;;;;;;;7.28;0.63;;;;;;;;;;4992135;28;20653;-81
2023/03/08 03:34:47;;;;;;;0.43;0.40;;;;;;;;;;4997766;28;20552;-81
2023/03/08 03:37:13;;;;;;;0.50;0.50;;;;;;;;;;4989070;28;20066;-81
2023/03/08 03:39:39;;;;;;;0.38;0.38;;;;;;;;;;4985720;28;20495;-80
2023/03/08 03:42:06;;;;;;;0.98;0.50;;;;;;;;;;4988419;28;20045;-80
2023/03/08 03:44:32;;;;;;;0.55;0.50;;;;;;;;;;4988203;28;20026;-80
2023/03/08 03:46:58;;;;;;;1.00;0.50;;;;;;;;;;4988899;28;20380;-80
2023/03/08 03:49:24;;;;;;;0.40;0.40;;;;;;;;;;4987673;28;20065;-80
2023/03/08 03:51:50;;;;;;;0.77;0.40;;;;;;;;;;4986687;28;20575;-80
2023/03/08 03:54:16;;;;;;;1.00;0.70;;;;;;;;;;4989791;28;20029;-80
2023/03/08 03:56:42;;;;;;;0.65;0.60;;;;;;;;;;4988400;28;20030;-80
2023/03/08 03:59:08;;;;;;;2.63;0.55;;;;;;;;;;4989088;28;20109;-80
2023/03/08 04:01:34;;;;;;;0.82;0.50;;;;;;;;;;4985147;28;20022;-80
2023/03/08 04:04:00;;;;;;;0.50;0.50;;;;;;;;;;4989225;28;20031;-80
2023/03/08 04:06:27;;;;;;;0.47;0.47;;;;;;;;;;4988921;28;20053;-80
2023/03/08 04:08:55;;;;;;;2.67;0.40;;;;;;;;;;4988247;28;20030;-80
2023/03/08 04:11:22;;;;;;;1.52;0.55;;;;;;;;;;4978038;28;20034;-81
2023/03/08 04:13:48;;;;;;;0.50;0.47;;;;;;;;;;4986501;28;20105;-81
2023/03/08 04:16:16;;;;;;;0.77;0.50;;;;;;;;;;4988426;28;20561;-81
2023/03/08 04:18:42;;;;;;;0.95;0.60;;;;;;;;;;4986994;28;20092;-81
2023/03/08 04:21:08;;;;;;;0.77;0.60;;;;;;;;;;4988686;28;20034;-81
2023/03/08 04:23:35;;;;;;;0.57;0.52;;;;;;;;;;4987051;28;20033;-80
2023/03/08 04:26:01;;;;;;;0.40;0.40;;;;;;;;;;4987201;28;20034;-80
2023/03/08 04:28:27;;;;;;;1.48;0.52;;;;;;;;;;4988023;28;20149;-79
2023/03/08 04:30:53;;;;;;;1.27;0.50;;;;;;;;;;4986641;28;20049;-80
2023/03/08 04:33:19;;;;;;;0.60;0.50;;;;;;;;;;4985976;28;20049;-81
2023/03/08 04:35:45;;;;;;;0.75;0.68;;;;;;;;;;4984557;28;20117;-80
2023/03/08 04:38:11;;;;;;;0.52;0.50;;;;;;;;;;4986896;28;20030;-80
2023/03/08 04:41:00;;;;;;;0.25;0.25;;;;;;;;;;4988637;28;20413;-80
2023/03/08 04:43:24;;;;;;;0.45;0.43;;;;;;;;;;4987565;28;20226;-80
2023/03/08 04:45:50;;;;;;;0.47;0.40;;;;;;;;;;4980317;28;20040;-79
2023/03/08 04:48:16;;;;;;;0.70;0.70;;;;;;;;;;4986287;28;20054;-79
2023/03/08 04:50:51;;;;;;;0.50;0.50;;;;;;;;;;4985710;28;20240;-80
2023/03/08 04:53:17;;;;;;;0.43;0.35;;;;;;;;;;4984025;28;20109;-79
2023/03/08 04:55:43;;;;;;;0.80;0.70;;;;;;;;;;4984510;28;20394;-79
2023/03/08 04:58:09;;;;;;;0.73;0.50;;;;;;;;;;4986763;28;20034;-80
2023/03/08 05:00:35;;;;;;;0.50;0.50;;;;;;;;;;4983616;28;20512;-80
2023/03/08 05:03:01;;;;;;;0.43;0.43;;;;;;;;;;4987387;28;20513;-80
2023/03/08 05:05:27;;;;;;;1.17;0.70;;;;;;;;;;4985829;28;20038;-80
2023/03/08 05:07:53;;;;;;;0.50;0.50;;;;;;;;;;4985688;28;20477;-79
2023/03/08 05:10:19;;;;;;;0.82;0.60;;;;;;;;;;4988212;28;20038;-80
2023/03/08 05:12:45;;;;;;;0.93;0.40;;;;;;;;;;4984774;28;20058;-79
2023/03/08 05:15:11;;;;;;;0.68;0.43;;;;;;;;;;4986602;28;20374;-79
2023/03/08 05:17:37;;;;;;;0.50;0.47;;;;;;;;;;4983566;28;20638;-79
2023/03/08 05:20:03;;;;;;;0.47;0.47;;;;;;;;;;4986925;28;20030;-80
2023/03/08 05:22:29;;;;;;;0.80;0.70;;;;;;;;;;4986241;28;20366;-79
2023/03/08 05:24:55;;;;;;;0.95;0.85;;;;;;;;;;4984037;28;20034;-80
2023/03/08 05:27:21;;;;;;;0.55;0.55;;;;;;;;;;4979796;28;20023;-78
2023/03/08 05:29:47;;;;;;;0.50;0.50;;;;;;;;;;4987561;28;20497;-78
2023/03/08 05:32:13;;;;;;;0.68;0.55;;;;;;;;;;4986660;28;20030;-78
2023/03/08 05:34:39;;;;;;;4.20;0.75;;;;;;;;;;4984623;28;20085;-78
2023/03/08 05:37:05;;;;;;;0.63;0.60;;;;;;;;;;4985214;28;20030;-79
2023/03/08 05:39:31;;;;;;;0.45;0.40;;;;;;;;;;4985015;28;20037;-79
2023/03/08 05:41:57;;;;;;;1.23;0.73;;;;;;;;;;4986754;28;20030;-80
2023/03/08 05:44:23;;;;;;;1.00;0.70;;;;;;;;;;4986399;28;20569;-79
2023/03/08 05:46:49;;;;;;;0.60;0.57;;;;;;;;;;4986202;28;20030;-78
2023/03/08 05:49:15;;;;;;;0.50;0.40;;;;;;;;;;4983720;28;20041;-78
2023/03/08 05:51:41;;;;;;;0.88;0.40;;;;;;;;;;4984909;28;20030;-79
2023/03/08 05:54:07;;;;;;;0.60;0.60;;;;;;;;;;4986428;28;20030;-78
2023/03/08 05:56:33;;;;;;;0.90;0.57;;;;;;;;;;4984005;28;20117;-78
2023/03/08 05:58:59;;;;;;;0.95;0.60;;;;;;;;;;4985548;28;20029;-79
2023/03/08 06:01:26;;;;;;;0.60;0.60;;;;;;;;;;4986023;28;20038;-79
2023/03/08 06:03:53;;;;;;;0.40;0.40;;;;;;;;;;4986165;28;20532;-80
2023/03/08 06:06:23;;;;;;;0.90;0.65;;;;;;;;;;4985341;28;20432;-80
2023/03/08 06:08:49;;;;;;;0.68;0.65;;;;;;;;;;4983034;28;20046;-79
2023/03/08 06:11:15;;;;;;;0.70;0.70;;;;;;;;;;4982569;28;20030;-79
2023/03/08 06:13:41;;;;;;;1.98;0.80;;;;;;;;;;4985044;28;20100;-78
2023/03/08 06:16:08;;;;;;;0.57;0.57;;;;;;;;;;4986129;28;20034;-78
2023/03/08 06:18:35;;;;;;;1.35;0.60;;;;;;;;;;4986067;28;20084;-79
2023/03/08 06:21:05;;;;;;;1.48;0.95;;;;;;;;;;4985556;28;20030;-79
2023/03/08 06:23:32;;;;;;;1.17;0.68;;;;;;;;;;4983905;28;20125;-79
2023/03/08 06:25:58;;;;;;;0.70;0.50;;;;;;;;;;4982924;28;20643;-79
2023/03/08 06:28:25;;;;;;;0.63;0.60;;;;;;;;;;4982758;28;20035;-79
2023/03/08 06:30:51;;;;;;;1.42;0.90;;;;;;;;;;4984482;28;20034;-79
2023/03/08 06:33:18;;;;;;;0.68;0.65;;;;;;;;;;4986475;28;20389;-79
2023/03/08 06:35:44;;;;;;;0.50;0.40;;;;;;;;;;4987114;28;20026;-79
2023/03/08 06:38:10;;;;;;;0.75;0.55;;;;;;;;;;4984121;28;20030;-78
2023/03/08 06:40:36;;;;;;;0.68;0.63;;;;;;;;;;4983999;28;20037;-78
2023/03/08 06:43:02;;;;;;;0.60;0.50;;;;;;;;;;4984856;28;20031;-78
2023/03/08 06:45:28;;;;;;;1.05;0.77;;;;;;;;;;4986527;28;20026;-79
2023/03/08 06:47:54;;;;;;;1.75;0.60;;;;;;;;;;4987172;28;20030;-79
2023/03/08 06:50:22;;;;;;;0.90;0.70;;;;;;;;;;4988992;28;20030;-79
2023/03/08 06:52:48;;;;;;;0.80;0.60;;;;;;;;;;4986300;28;20157;-79
2023/03/08 06:55:14;;;;;;;0.40;0.40;;;;;;;;;;4988922;28;20030;-78
2023/03/08 06:57:40;;;;;;;0.70;0.60;;;;;;;;;;4987049;28;20033;-79
2023/03/08 07:00:08;;;;;;;0.40;0.40;;;;;;;;;;4986217;28;20382;-78
2023/03/08 07:02:34;;;;;;;1.80;0.35;;;;;;;;;;4988312;28;20080;-78
2023/03/08 07:05:00;;;;;;;1.15;0.73;;;;;;;;;;4987979;28;20031;-81
2023/03/08 07:07:26;;;;;;;0.60;0.60;;;;;;;;;;4987599;28;20038;-81
2023/03/08 07:09:52;;;;;;;1.75;0.50;;;;;;;;;;4985225;28;20046;-79
2023/03/08 07:12:18;;;;;;;0.93;0.63;;;;;;;;;;4972987;28;20481;-79
2023/03/08 07:14:44;;;;;;;1.70;0.80;;;;;;;;;;4989678;28;20070;-81
2023/03/08 07:17:10;;;;;;;0.77;0.35;;;;;;;;;;4988854;28;20038;-78
2023/03/08 07:19:36;;;;;;;0.77;0.70;;;;;;;;;;4986607;28;20033;-78
2023/03/08 07:22:02;;;;;;;0.95;0.50;;;;;;;;;;4988612;28;20477;-78
2023/03/08 07:24:28;;;;;;;0.90;0.70;;;;;;;;;;4988144;28;20080;-78
2023/03/08 07:26:54;;;;;;;0.65;0.65;;;;;;;;;;4984359;28;20106;-77
2023/03/08 07:29:20;;;;;;;0.63;0.55;;;;;;;;;;4985491;28;20104;-78
2023/03/08 07:31:45;;;;;;;2.53;1.10;;;;;;;;;;4987720;28;20018;-80
2023/03/08 07:34:11;;;;;;;0.95;0.60;;;;;;;;;;4988530;28;20031;-80
2023/03/08 07:36:40;;;;;;;0.70;0.70;;;;;;;;;;4988443;28;20030;-81
2023/03/08 07:39:06;;;;;;;0.70;0.65;;;;;;;;;;4989009;28;20055;-80
2023/03/08 07:41:33;;;;;;;1.98;0.73;;;;;;;;;;4988169;28;20015;-81
2023/03/08 07:44:01;;;;;;;1.38;0.70;;;;;;;;;;4987633;28;20026;-80
2023/03/08 07:46:27;;;;;;;1.33;0.90;;;;;;;;;;4989178;28;20233;-79
2023/03/08 07:48:53;;;;;;;0.70;0.70;;;;;;;;;;4984493;28;20035;-79
2023/03/08 07:51:19;;;;;;;1.02;0.85;;;;;;;;;;4985641;28;20092;-78
2023/03/08 07:53:45;;;;;;;1.85;0.60;;;;;;;;;;4988060;28;20022;-79
2023/03/08 07:56:11;;;;;;;1.05;0.77;;;;;;;;;;4992416;28;20046;-80
2023/03/08 07:58:38;;;;;;;1.20;0.80;;;;;;;;;;4988249;28;20026;-80
2023/03/08 08:01:08;;;;;;;1.45;0.95;;;;;;;;;;4982787;28;20031;-80
2023/03/08 08:03:34;;;;;;;0.60;0.60;;;;;;;;;;4985959;28;20370;-83
2023/03/08 08:06:03;;;;;;;0.57;0.57;;;;;;;;;;4990693;28;20046;-78
2023/03/08 08:08:29;;;;;;;1.15;0.70;;;;;;;;;;4984657;28;20500;-78
2023/03/08 08:10:55;;;;;;;1.88;0.80;;;;;;;;;;4992542;28;20394;-76
2023/03/08 08:13:21;;;;;;;3.70;0.68;;;;;;;;;;4983002;28;20030;-73
2023/03/08 08:15:47;;;;;;;0.75;0.65;;;;;;;;;;4985917;28;20485;-73
2023/03/08 08:18:13;;;;;;;0.65;0.65;;;;;;;;;;4986044;28;20072;-73
2023/03/08 08:20:40;;;;;;;1.00;0.70;;;;;;;;;;4987976;28;20477;-73
2023/03/08 08:23:06;;;;;;;0.73;0.60;;;;;;;;;;4990695;28;20585;-79
2023/03/08 08:25:32;;;;;;;1.45;0.43;;;;;;;;;;4982506;28;20038;-77
2023/03/08 08:27:58;;;;;;;0.65;0.65;;;;;;;;;;4984091;28;20037;-77
2023/03/08 08:30:24;;;;;;;0.82;0.80;;;;;;;;;;4987909;28;20644;-76
2023/03/08 08:32:50;;;;;;;1.05;0.88;;;;;;;;;;4989583;28;20032;-76
2023/03/08 08:35:16;;;;;;;0.70;0.68;;;;;;;;;;4982078;28;20030;-77
2023/03/08 08:37:42;;;;;;;1.25;0.80;;;;;;;;;;4984399;28;20088;-76
2023/03/08 08:40:09;;;;;;;0.93;0.75;;;;;;;;;;4986396;28;20022;-77
2023/03/08 08:42:35;;;;;;;1.10;0.82;;;;;;;;;;4986821;28;20080;-78
2023/03/08 08:45:01;;;;;;;1.27;0.90;;;;;;;;;;4985868;28;20030;-77
2023/03/08 08:47:28;;;;;;;1.10;0.85;;;;;;;;;;4987294;28;20057;-77
2023/03/08 08:49:54;;;;;;;0.70;0.70;;;;;;;;;;4978621;28;20452;-78
2023/03/08 08:52:20;;;;;;;0.60;0.60;;;;;;;;;;4984170;28;20134;-85
2023/03/08 08:54:46;;;;;;;0.70;0.70;;;;;;;;;;4969866;28;20442;-85
2023/03/08 08:57:12;;;;;;;0.88;0.60;;;;;;;;;;4986372;28;20034;-78
2023/03/08 08:59:38;;;;;;;0.57;0.57;;;;;;;;;;4981864;28;20026;-76
2023/03/08 09:02:05;;;;;;;1.10;0.70;;;;;;;;;;4985978;28;20034;-76
2023/03/08 09:04:31;;;;;;;0.63;0.63;;;;;;;;;;4986921;28;20022;-76
2023/03/08 09:06:57;;;;;;;0.95;0.80;;;;;;;;;;4981292;28;20072;-76
2023/03/08 09:09:26;;;;;;;0.77;0.68;;;;;;;;;;4984212;28;20725;-77
2023/03/08 09:11:52;;;;;;;0.88;0.60;;;;;;;;;;4983374;28;20030;-78
2023/03/08 09:14:18;;;;;;;1.08;0.82;;;;;;;;;;4970768;28;20497;-75
2023/03/08 09:16:44;;;;;;;0.70;0.65;;;;;;;;;;4986598;28;20069;-73
2023/03/08 09:19:11;;;;;;;0.63;0.63;;;;;;;;;;4979418;28;20255;-72
2023/03/08 09:21:38;;;;;;;0.60;0.60;;;;;;;;;;4985161;28;20494;-73
2023/03/08 09:24:05;;;;;;;0.50;0.50;;;;;;;;;;4986918;28;20496;-73
2023/03/08 09:26:34;;;;;;;0.63;0.60;;;;;;;;;;4985163;28;20485;-73
2023/03/08 09:29:04;;;;;;;1.05;0.95;;;;;;;;;;4987066;28;20033;-73
2023/03/08 09:31:30;;;;;;;0.90;0.70;;;;;;;;;;4983471;28;20113;-72
2023/03/08 09:33:56;;;;;;;0.60;0.60;;;;;;;;;;4984215;28;20034;-73
2023/03/08 09:36:22;;;;;;;1.27;0.70;;;;;;;;;;4984555;28;20064;-72
2023/03/08 09:38:52;;;;;;;0.40;0.40;;;;;;;;;;4981663;28;20026;-73
2023/03/08 09:41:22;;;;;;;0.85;0.52;;;;;;;;;;4987316;28;20018;-73
2023/03/08 09:44:06;;;;;;;0.68;0.63;;;;;;;;;;4987151;28;20031;-73
2023/03/08 09:46:58;;;;;;;0.77;0.68;;;;;;;;;;4984449;28;20096;-73
2023/03/08 09:49:27;;;;;;;0.82;0.70;;;;;;;;;;4974269;28;20090;-73
2023/03/08 09:51:59;;;;;;;0.35;0.35;;;;;;;;;;4984524;28;20037;-73
2023/03/08 09:54:37;;;;;;;0.40;0.40;;;;;;;;;;4987216;28;20042;-73
2023/03/08 09:57:05;;;;;;;0.50;0.50;;;;;;;;;;4986973;28;20065;-73
2023/03/08 09:59:39;;;;;;;0.45;0.45;;;;;;;;;;4983611;28;20084;-73
2023/03/08 10:02:24;;;;;;;0.43;0.40;;;;;;;;;;4986314;28;20022;-73
2023/03/08 10:05:08;;;;;;;0.57;0.55;;;;;;;;;;4987067;28;20092;-73
2023/03/08 10:07:42;;;;;;;0.45;0.45;;;;;;;;;;4983122;28;20045;-72
2023/03/08 10:10:22;;;;;;;0.82;0.50;;;;;;;;;;4983448;28;20112;-72
2023/03/08 10:13:03;;;;;;;0.75;0.60;;;;;;;;;;4985763;28;20477;-74
2023/03/08 10:15:30;;;;;;;0.40;0.40;;;;;;;;;;4985246;28;20031;-73
2023/03/08 10:18:12;;;;;;;0.77;0.75;;;;;;;;;;4984731;28;20042;-74
2023/03/08 10:20:39;;;;;;;0.50;0.45;;;;;;;;;;4980416;28;20035;-73
2023/03/08 10:23:22;;;;;;;0.50;0.50;;;;;;;;;;4983209;28;20022;-73
2023/03/08 10:25:48;;;;;;;1.95;0.68;;;;;;;;;;4988425;28;20022;-73
2023/03/08 10:28:16;;;;;;;0.80;0.45;;;;;;;;;;4989467;28;20468;-72
2023/03/08 10:30:47;;;;;;;0.50;0.50;;;;;;;;;;4988868;28;20042;-74
2023/03/08 10:33:14;;;;;;;0.50;0.50;;;;;;;;;;4990349;28;20406;-80
2023/03/08 10:35:57;;;;;;;0.47;0.40;;;;;;;;;;4990414;28;20061;-79
2023/03/08 10:38:25;;;;;;;0.60;0.57;;;;;;;;;;4991332;28;20030;-80
2023/03/08 10:40:59;;;;;;;1.00;0.50;;;;;;;;;;4985503;28;20031;-79
2023/03/08 10:43:28;;;;;;;1.08;0.60;;;;;;;;;;4989311;28;20113;-81
2023/03/08 10:46:11;;;;;;;0.50;0.50;;;;;;;;;;4986132;28;20025;-80
2023/03/08 10:48:37;;;;;;;0.80;0.57;;;;;;;;;;4986785;28;20049;-88
2023/03/08 10:51:06;;;;;;;4.63;0.50;;;;;;;;;;4983775;28;20436;-85
2023/03/08 10:53:37;;;;;;;1.65;0.50;;;;;;;;;;4988092;28;20037;-83
2023/03/08 10:56:06;;;;;;;0.77;0.60;;;;;;;;;;4990001;28;20044;-80
2023/03/08 10:58:36;;;;;;;0.60;0.60;;;;;;;;;;4986550;28;20037;-81
2023/03/08 11:01:06;;;;;;;1.20;0.63;;;;;;;;;;4986515;28;20035;-87
2023/03/08 11:03:33;;;;;;;0.40;0.40;;;;;;;;;;4987168;28;20026;-80
2023/03/08 11:06:13;;;;;;;0.77;0.50;;;;;;;;;;4985288;28;20109;-82
2023/03/08 11:08:40;;;;;;;1.02;0.60;;;;;;;;;;4982069;28;20022;-82
2023/03/08 11:11:11;;;;;;;0.95;0.70;;;;;;;;;;4986878;28;20053;-82
2023/03/08 11:13:40;;;;;;;1.63;0.57;;;;;;;;;;4989268;28;20085;-78
2023/03/08 11:16:06;;;;;;;0.40;0.40;;;;;;;;;;4984331;28;20034;-79
2023/03/08 11:18:38;;;;;;;1.33;0.82;;;;;;;;;;4988047;28;20486;-86
2023/03/08 11:21:34;;;;;;;0.57;0.47;;;;;;;;;;4987107;28;20038;-80
2023/03/08 11:24:17;;;;;;;0.50;0.50;;;;;;;;;;4965090;28;20048;-80
2023/03/08 11:26:43;;;;;;;0.90;0.70;;;;;;;;;;4988035;28;20716;-79
2023/03/08 11:29:16;;;;;;;0.60;0.60;;;;;;;;;;4991989;28;20042;-76
2023/03/08 11:31:45;;;;;;;0.70;0.70;;;;;;;;;;4983341;28;20540;-81
2023/03/08 11:34:28;;;;;;;1.50;1.02;;;;;;;;;;4985551;28;20026;-81
2023/03/08 11:37:19;;;;;;;2.30;0.45;;;;;;;;;;4988133;28;20584;-80
2023/03/08 11:40:05;;;;;;;2.20;0.40;;;;;;;;;;4986244;28;20034;-80
2023/03/08 11:42:32;;;;;;;1.27;0.65;;;;;;;;;;4979316;28;20761;-80
2023/03/08 11:45:17;;;;;;;1.05;0.47;;;;;;;;;;4980684;28;20225;-81
2023/03/08 11:47:52;;;;;;;2.38;0.82;;;;;;;;;;4977536;28;20030;-81
2023/03/08 11:50:23;;;;;;;0.85;0.82;;;;;;;;;;4976687;28;20058;-80
2023/03/08 11:53:01;;;;;;;0.70;0.70;;;;;;;;;;4983458;28;20038;-80
2023/03/08 11:55:45;;;;;;;0.88;0.70;;;;;;;;;;4972086;28;20030;-80
2023/03/08 11:58:21;;;;;;;1.13;0.60;;;;;;;;;;4979950;28;20865;-79
2023/03/08 12:00:51;;;;;;;0.50;0.35;;;;;;;;;;4973653;28;20800;-81
2023/03/08 12:03:19;;;;;;;0.70;0.45;;;;;;;;;;4978431;28;20109;-81
2023/03/08 12:05:56;;;;;;;2.28;0.50;;;;;;;;;;4983035;28;20046;-80
2023/03/08 12:08:25;;;;;;;0.80;0.68;;;;;;;;;;4978761;28;20030;-77
2023/03/08 12:11:14;;;;;;;1.02;0.93;;;;;;;;;;4984246;28;20543;-78
2023/03/08 12:13:43;;;;;;;2.58;0.50;;;;;;;;;;4968338;28;20034;-77
2023/03/08 12:16:13;;;;;;;0.45;0.45;;;;;;;;;;4981689;28;20030;-78
2023/03/08 12:18:39;;;;;;;0.75;0.65;;;;;;;;;;4981890;28;20405;-77
2023/03/08 12:21:13;;;;;;;2.50;0.50;;;;;;;;;;4984225;28;20457;-78
2023/03/08 12:23:56;;;;;;;0.47;0.47;;;;;;;;;;4983204;28;20032;-78
2023/03/08 12:26:27;;;;;;;0.63;0.63;;;;;;;;;;4982549;28;20398;-77
2023/03/08 12:29:02;;;;;;;0.70;0.70;;;;;;;;;;4979128;28;20100;-79
2023/03/08 12:31:30;;;;;;;0.90;0.60;;;;;;;;;;4979723;28;20042;-76
2023/03/08 12:33:57;;;;;;;2.35;0.60;;;;;;;;;;4977134;28;20027;-79
2023/03/08 12:36:35;;;;;;;0.55;0.55;;;;;;;;;;4982421;28;20030;-81
2023/03/08 12:39:05;;;;;;;0.55;0.50;;;;;;;;;;4979450;28;20051;-81
2023/03/08 12:41:31;;;;;;;0.60;0.60;;;;;;;;;;4981974;28;20512;-74
2023/03/08 12:43:59;;;;;;;0.63;0.63;;;;;;;;;;4977003;28;20069;-74
2023/03/08 12:46:25;;;;;;;0.68;0.50;;;;;;;;;;4979800;28;20033;-74
2023/03/08 12:48:52;;;;;;;0.40;0.40;;;;;;;;;;4978743;28;20026;-72
2023/03/08 12:51:26;;;;;;;0.40;0.40;;;;;;;;;;4984225;28;20042;-72
2023/03/08 12:53:52;;;;;;;11.68;0.70;;;;;;;;;;4979029;28;20038;-72
2023/03/08 12:56:22;;;;;;;0.35;0.30;;;;;;;;;;4982355;28;20131;-73
2023/03/08 12:58:49;;;;;;;4.70;0.70;;;;;;;;;;4980733;28;20045;-73
2023/03/08 13:01:34;;;;;;;0.50;0.50;;;;;;;;;;4982051;28;20637;-73
2023/03/08 13:04:02;;;;;;;0.50;0.50;;;;;;;;;;4977727;28;20064;-73
2023/03/08 13:06:45;;;;;;;0.63;0.55;;;;;;;;;;4981715;28;20041;-73
2023/03/08 13:09:40;;;;;;;0.77;0.40;;;;;;;;;;4980983;28;20125;-72
2023/03/08 13:12:15;;;;;;;1.00;0.40;;;;;;;;;;4920348;28;20385;-73
2023/03/08 13:15:02;;;;;;;0.85;0.65;;;;;;;;;;4982579;28;20027;-72
2023/03/08 13:17:31;;;;;;;1.60;0.40;;;;;;;;;;4987323;28;20465;-73
2023/03/08 13:19:58;;;;;;;1.52;0.40;;;;;;;;;;4975918;28;20164;-73
2023/03/08 13:22:27;;;;;;;0.80;0.40;;;;;;;;;;4984203;28;20104;-73
2023/03/08 13:25:00;;;;;;;3.45;0.50;;;;;;;;;;4982899;28;20015;-73
2023/03/08 13:27:34;;;;;;;3.90;0.50;;;;;;;;;;4982520;28;20034;-73
2023/03/08 13:30:16;;;;;;;1.63;0.43;;;;;;;;;;4979304;28;20034;-73
2023/03/08 13:32:42;;;;;;;0.45;0.45;;;;;;;;;;4981914;28;20082;-73
2023/03/08 13:35:13;;;;;;;0.43;0.40;;;;;;;;;;4982805;28;20087;-72
2023/03/08 13:37:39;;;;;;;1.48;1.08;;;;;;;;;;4981421;28;20022;-73
2023/03/08 13:40:15;;;;;;;0.60;0.57;;;;;;;;;;4976861;28;20026;-74
2023/03/08 13:42:52;;;;;;;0.40;0.40;;;;;;;;;;4981147;28;20093;-72
2023/03/08 13:45:18;;;;;;;0.80;0.70;;;;;;;;;;4981800;28;20034;-74
2023/03/08 13:47:44;;;;;;;0.52;0.50;;;;;;;;;;4979367;28;20042;-74
2023/03/08 13:50:18;;;;;;;4.80;0.50;;;;;;;;;;4979423;28;20807;-74
2023/03/08 13:52:44;;;;;;;0.82;0.75;;;;;;;;;;4983169;28;20034;-72
2023/03/08 13:55:17;;;;;;;0.40;0.40;;;;;;;;;;4980249;28;20019;-72
2023/03/08 13:57:47;;;;;;;0.40;0.40;;;;;;;;;;4979676;28;20034;-73
2023/03/08 14:00:30;;;;;;;1.05;1.02;;;;;;;;;;4978404;28;20493;-73
2023/03/08 14:02:56;;;;;;;0.65;0.60;;;;;;;;;;4964681;28;20031;-73
2023/03/08 14:05:30;;;;;;;0.45;0.45;;;;;;;;;;4981753;28;20061;-73
2023/03/08 14:07:56;;;;;;;0.40;0.40;;;;;;;;;;4975070;28;20034;-73
2023/03/08 14:10:40;;;;;;;0.65;0.65;;;;;;;;;;4979036;28;20050;-74
2023/03/08 14:13:07;;;;;;;1.17;0.70;;;;;;;;;;4969525;28;20034;-73
2023/03/08 14:15:35;;;;;;;0.28;0.28;;;;;;;;;;4976531;28;20054;-73
2023/03/08 14:18:03;;;;;;;0.50;0.50;;;;;;;;;;4969818;28;20085;-73
2023/03/08 14:20:29;;;;;;;0.40;0.40;;;;;;;;;;4981332;28;20113;-73
2023/03/08 14:22:55;;;;;;;0.93;0.40;;;;;;;;;;4983104;28;20100;-72
2023/03/08 14:25:21;;;;;;;1.73;0.75;;;;;;;;;;4981724;28;21581;-73
2023/03/08 14:27:47;;;;;;;0.57;0.57;;;;;;;;;;4979226;28;20398;-73
2023/03/08 14:33:20;;;;;;;0.40;0.40;;;;;;;;;;4973988;28;20046;-80
2023/03/08 14:35:56;;;;;;;2.42;0.70;;;;;;;;;;4973535;28;20027;-79
2023/03/08 14:38:22;;;;;;;0.57;0.50;;;;;;;;;;4987495;28;20093;-79
2023/03/08 14:40:48;;;;;;;1.20;0.80;;;;;;;;;;4982002;28;20034;-78
2023/03/08 14:43:16;;;;;;;1.15;0.52;;;;;;;;;;4986164;28;20401;-79
2023/03/08 14:45:49;;;;;;;0.90;0.90;;;;;;;;;;4972639;28;20026;-79
2023/03/08 14:48:23;;;;;;;1.85;0.68;;;;;;;;;;4999331;28;20038;-75
2023/03/08 14:50:54;;;;;;;0.43;0.43;;;;;;;;;;4985766;28;20039;-75
2023/03/08 14:53:28;;;;;;;1.45;0.70;;;;;;;;;;4984152;28;20054;-75
2023/03/08 14:55:55;;;;;;;1.27;0.60;;;;;;;;;;4984743;28;20077;-75